sensor_id;sensor_type;location;lat;lon;timestamp;P1;durP1;ratioP1;P2;durP2;ratioP2
12114;SDS011;6121;49.810;6.418;2023-09-19T00:01:33;18.33;;;5.00;;
12114;SDS011;6121;49.810;6.418;2023-09-19T00:03:59;17.75;;;4.82;;
12114;SDS011;6121;49.810;6.418;2023-09-19T00:06:28;18.00;;;4.90;;
12114;SDS011;6121;49.810;6.418;2023-09-19T00:08:57;21.40;;;5.73;;
12114;SDS011;6121;49.810;6.418;2023-09-19T00:11:24;15.43;;;4.40;;
12114;SDS011;6121;49.810;6.418;2023-09-19T00:13:52;14.30;;;4.00;;
12114;SDS011;6121;49.810;6.418;2023-09-19T00:16:18;21.50;;;5.72;;
12114;SDS011;6121;49.810;6.418;2023-09-19T00:18:44;14.25;;;4.10;;
12114;SDS011;6121;49.810;6.418;2023-09-19T00:21:10;19.40;;;5.40;;
12114;SDS011;6121;49.810;6.418;2023-09-19T00:23:36;17.75;;;4.88;;
12114;SDS011;6121;49.810;6.418;2023-09-19T00:26:03;20.30;;;5.45;;
12114;SDS011;6121;49.810;6.418;2023-09-19T00:28:29;16.30;;;4.40;;
12114;SDS011;6121;49.810;6.418;2023-09-19T00:30:57;16.30;;;4.60;;
12114;SDS011;6121;49.810;6.418;2023-09-19T00:33:26;15.95;;;4.47;;
12114;SDS011;6121;49.810;6.418;2023-09-19T00:35:55;16.98;;;4.75;;
12114;SDS011;6121;49.810;6.418;2023-09-19T00:38:22;18.65;;;5.05;;
12114;SDS011;6121;49.810;6.418;2023-09-19T00:40:52;12.50;;;3.70;;
12114;SDS011;6121;49.810;6.418;2023-09-19T00:43:20;18.42;;;5.13;;
12114;SDS011;6121;49.810;6.418;2023-09-19T00:45:50;15.65;;;4.45;;
12114;SDS011;6121;49.810;6.418;2023-09-19T00:48:20;21.48;;;5.72;;
12114;SDS011;6121;49.810;6.418;2023-09-19T00:50:47;17.15;;;4.75;;
12114;SDS011;6121;49.810;6.418;2023-09-19T00:53:15;19.77;;;5.40;;
12114;SDS011;6121;49.810;6.418;2023-09-19T00:55:45;15.90;;;4.35;;
12114;SDS011;6121;49.810;6.418;2023-09-19T00:58:12;22.40;;;5.90;;
12114;SDS011;6121;49.810;6.418;2023-09-19T01:00:38;14.33;;;4.10;;
12114;SDS011;6121;49.810;6.418;2023-09-19T01:03:05;21.57;;;5.63;;
12114;SDS011;6121;49.810;6.418;2023-09-19T01:05:33;17.10;;;4.55;;
12114;SDS011;6121;49.810;6.418;2023-09-19T01:07:59;21.30;;;5.63;;
12114;SDS011;6121;49.810;6.418;2023-09-19T01:10:25;21.95;;;5.82;;
12114;SDS011;6121;49.810;6.418;2023-09-19T01:12:55;15.15;;;4.28;;
12114;SDS011;6121;49.810;6.418;2023-09-19T01:15:28;22.25;;;5.85;;
12114;SDS011;6121;49.810;6.418;2023-09-19T01:18:16;19.55;;;5.25;;
12114;SDS011;6121;49.810;6.418;2023-09-19T01:20:57;17.40;;;4.82;;
12114;SDS011;6121;49.810;6.418;2023-09-19T01:32:05;19.65;;;5.30;;
12114;SDS011;6121;49.810;6.418;2023-09-19T01:37:15;19.07;;;5.20;;
12114;SDS011;6121;49.810;6.418;2023-09-19T01:39:52;14.68;;;4.20;;
12114;SDS011;6121;49.810;6.418;2023-09-19T01:51:11;22.52;;;6.07;;
12114;SDS011;6121;49.810;6.418;2023-09-19T01:53:52;14.25;;;4.00;;
12114;SDS011;6121;49.810;6.418;2023-09-19T01:56:25;17.45;;;4.82;;
12114;SDS011;6121;49.810;6.418;2023-09-19T01:59:07;16.02;;;4.45;;
12114;SDS011;6121;49.810;6.418;2023-09-19T02:01:39;17.23;;;4.63;;
12114;SDS011;6121;49.810;6.418;2023-09-19T02:04:10;21.52;;;5.70;;
12114;SDS011;6121;49.810;6.418;2023-09-19T02:06:39;13.73;;;3.97;;
12114;SDS011;6121;49.810;6.418;2023-09-19T02:09:06;19.53;;;5.23;;
12114;SDS011;6121;49.810;6.418;2023-09-19T02:11:32;20.40;;;5.50;;
12114;SDS011;6121;49.810;6.418;2023-09-19T02:13:58;17.67;;;4.83;;
12114;SDS011;6121;49.810;6.418;2023-09-19T02:16:24;23.92;;;6.18;;
12114;SDS011;6121;49.810;6.418;2023-09-19T02:18:50;16.48;;;4.63;;
12114;SDS011;6121;49.810;6.418;2023-09-19T02:21:16;21.63;;;5.88;;
12114;SDS011;6121;49.810;6.418;2023-09-19T02:23:44;16.75;;;4.55;;
12114;SDS011;6121;49.810;6.418;2023-09-19T02:26:12;21.40;;;5.78;;
12114;SDS011;6121;49.810;6.418;2023-09-19T02:28:40;17.25;;;4.72;;
12114;SDS011;6121;49.810;6.418;2023-09-19T02:31:08;18.90;;;5.20;;
12114;SDS011;6121;49.810;6.418;2023-09-19T02:33:34;22.67;;;6.00;;
12114;SDS011;6121;49.810;6.418;2023-09-19T02:36:00;17.67;;;4.90;;
12114;SDS011;6121;49.810;6.418;2023-09-19T02:38:26;21.98;;;5.80;;
12114;SDS011;6121;49.810;6.418;2023-09-19T02:40:52;17.85;;;4.80;;
12114;SDS011;6121;49.810;6.418;2023-09-19T02:43:20;24.60;;;6.53;;
12114;SDS011;6121;49.810;6.418;2023-09-19T02:45:47;18.17;;;4.93;;
12114;SDS011;6121;49.810;6.418;2023-09-19T02:48:18;20.38;;;5.50;;
12114;SDS011;6121;49.810;6.418;2023-09-19T02:50:45;14.27;;;4.10;;
12114;SDS011;6121;49.810;6.418;2023-09-19T02:53:14;22.63;;;6.00;;
12114;SDS011;6121;49.810;6.418;2023-09-19T02:55:40;19.23;;;5.15;;
12114;SDS011;6121;49.810;6.418;2023-09-19T02:58:06;19.40;;;5.28;;
12114;SDS011;6121;49.810;6.418;2023-09-19T03:00:39;18.98;;;5.25;;
12114;SDS011;6121;49.810;6.418;2023-09-19T03:03:08;20.67;;;5.55;;
12114;SDS011;6121;49.810;6.418;2023-09-19T03:05:34;22.73;;;6.10;;
12114;SDS011;6121;49.810;6.418;2023-09-19T03:08:00;16.70;;;4.80;;
12114;SDS011;6121;49.810;6.418;2023-09-19T03:10:26;22.70;;;6.10;;
12114;SDS011;6121;49.810;6.418;2023-09-19T03:12:54;15.60;;;4.45;;
12114;SDS011;6121;49.810;6.418;2023-09-19T03:15:21;24.55;;;6.53;;
12114;SDS011;6121;49.810;6.418;2023-09-19T03:17:49;16.65;;;4.70;;
12114;SDS011;6121;49.810;6.418;2023-09-19T03:20:19;22.67;;;6.10;;
12114;SDS011;6121;49.810;6.418;2023-09-19T03:22:47;18.53;;;5.20;;
12114;SDS011;6121;49.810;6.418;2023-09-19T03:25:14;24.98;;;6.65;;
12114;SDS011;6121;49.810;6.418;2023-09-19T03:27:44;18.10;;;5.05;;
12114;SDS011;6121;49.810;6.418;2023-09-19T03:30:09;19.40;;;5.28;;
12114;SDS011;6121;49.810;6.418;2023-09-19T03:32:46;17.98;;;4.95;;
12114;SDS011;6121;49.810;6.418;2023-09-19T03:35:15;23.15;;;6.15;;
12114;SDS011;6121;49.810;6.418;2023-09-19T03:37:42;18.67;;;5.07;;
12114;SDS011;6121;49.810;6.418;2023-09-19T03:40:09;19.38;;;5.32;;
12114;SDS011;6121;49.810;6.418;2023-09-19T03:42:40;24.85;;;6.57;;
12114;SDS011;6121;49.810;6.418;2023-09-19T03:45:09;22.10;;;5.78;;
12114;SDS011;6121;49.810;6.418;2023-09-19T03:47:40;22.20;;;5.90;;
12114;SDS011;6121;49.810;6.418;2023-09-19T03:50:07;17.95;;;4.95;;
12114;SDS011;6121;49.810;6.418;2023-09-19T03:52:36;25.73;;;6.65;;
12114;SDS011;6121;49.810;6.418;2023-09-19T03:55:02;16.20;;;4.53;;
12114;SDS011;6121;49.810;6.418;2023-09-19T03:57:29;20.77;;;5.60;;
12114;SDS011;6121;49.810;6.418;2023-09-19T03:59:55;17.83;;;4.85;;
12114;SDS011;6121;49.810;6.418;2023-09-19T04:02:21;25.95;;;6.78;;
12114;SDS011;6121;49.810;6.418;2023-09-19T04:04:49;17.02;;;4.78;;
12114;SDS011;6121;49.810;6.418;2023-09-19T04:07:18;20.55;;;5.70;;
12114;SDS011;6121;49.810;6.418;2023-09-19T04:09:48;16.58;;;4.68;;
12114;SDS011;6121;49.810;6.418;2023-09-19T04:12:14;22.55;;;6.10;;
12114;SDS011;6121;49.810;6.418;2023-09-19T04:14:42;15.80;;;4.47;;
12114;SDS011;6121;49.810;6.418;2023-09-19T04:17:08;17.45;;;4.93;;
12114;SDS011;6121;49.810;6.418;2023-09-19T04:19:35;20.88;;;5.75;;
12114;SDS011;6121;49.810;6.418;2023-09-19T04:22:01;18.42;;;5.03;;
12114;SDS011;6121;49.810;6.418;2023-09-19T04:24:28;21.83;;;5.93;;
12114;SDS011;6121;49.810;6.418;2023-09-19T04:26:54;17.50;;;4.90;;
12114;SDS011;6121;49.810;6.418;2023-09-19T04:29:20;23.83;;;6.40;;
12114;SDS011;6121;49.810;6.418;2023-09-19T04:31:46;18.05;;;4.95;;
12114;SDS011;6121;49.810;6.418;2023-09-19T04:34:12;20.42;;;5.53;;
12114;SDS011;6121;49.810;6.418;2023-09-19T04:36:43;21.73;;;5.87;;
12114;SDS011;6121;49.810;6.418;2023-09-19T04:39:09;17.75;;;4.93;;
12114;SDS011;6121;49.810;6.418;2023-09-19T04:41:37;20.42;;;5.63;;
12114;SDS011;6121;49.810;6.418;2023-09-19T04:44:06;17.48;;;4.90;;
12114;SDS011;6121;49.810;6.418;2023-09-19T04:46:32;22.60;;;5.97;;
12114;SDS011;6121;49.810;6.418;2023-09-19T04:48:59;18.23;;;4.80;;
12114;SDS011;6121;49.810;6.418;2023-09-19T04:51:25;21.20;;;5.70;;
12114;SDS011;6121;49.810;6.418;2023-09-19T04:53:54;19.10;;;5.10;;
12114;SDS011;6121;49.810;6.418;2023-09-19T04:56:20;26.88;;;6.90;;
12114;SDS011;6121;49.810;6.418;2023-09-19T04:58:46;19.42;;;5.22;;
12114;SDS011;6121;49.810;6.418;2023-09-19T05:01:12;20.70;;;5.57;;
12114;SDS011;6121;49.810;6.418;2023-09-19T05:03:40;22.13;;;5.90;;
12114;SDS011;6121;49.810;6.418;2023-09-19T05:06:06;20.85;;;5.63;;
12114;SDS011;6121;49.810;6.418;2023-09-19T05:08:32;23.70;;;6.40;;
12114;SDS011;6121;49.810;6.418;2023-09-19T05:10:58;18.73;;;5.30;;
12114;SDS011;6121;49.810;6.418;2023-09-19T05:13:26;21.58;;;5.95;;
12114;SDS011;6121;49.810;6.418;2023-09-19T05:15:52;23.45;;;6.38;;
12114;SDS011;6121;49.810;6.418;2023-09-19T05:18:18;22.30;;;6.17;;
12114;SDS011;6121;49.810;6.418;2023-09-19T05:20:44;21.87;;;6.10;;
12114;SDS011;6121;49.810;6.418;2023-09-19T05:23:10;18.40;;;5.20;;
12114;SDS011;6121;49.810;6.418;2023-09-19T05:25:40;21.65;;;5.93;;
12114;SDS011;6121;49.810;6.418;2023-09-19T05:28:07;18.00;;;5.13;;
12114;SDS011;6121;49.810;6.418;2023-09-19T05:30:33;32.78;;;8.50;;
12114;SDS011;6121;49.810;6.418;2023-09-19T05:33:01;17.98;;;5.13;;
12114;SDS011;6121;49.810;6.418;2023-09-19T05:35:29;28.42;;;7.40;;
12114;SDS011;6121;49.810;6.418;2023-09-19T05:37:56;26.90;;;7.15;;
12114;SDS011;6121;49.810;6.418;2023-09-19T05:40:23;27.58;;;7.20;;
12114;SDS011;6121;49.810;6.418;2023-09-19T05:42:49;17.80;;;5.05;;
12114;SDS011;6121;49.810;6.418;2023-09-19T05:45:16;28.00;;;7.40;;
12114;SDS011;6121;49.810;6.418;2023-09-19T05:47:51;31.75;;;8.30;;
12114;SDS011;6121;49.810;6.418;2023-09-19T05:50:21;29.90;;;8.02;;
12114;SDS011;6121;49.810;6.418;2023-09-19T05:52:53;26.33;;;7.05;;
12114;SDS011;6121;49.810;6.418;2023-09-19T05:55:21;33.37;;;8.30;;
12114;SDS011;6121;49.810;6.418;2023-09-19T05:57:50;34.33;;;8.80;;
12114;SDS011;6121;49.810;6.418;2023-09-19T06:00:17;27.02;;;7.10;;
12114;SDS011;6121;49.810;6.418;2023-09-19T06:02:55;27.67;;;7.15;;
12114;SDS011;6121;49.810;6.418;2023-09-19T06:05:22;32.55;;;8.25;;
12114;SDS011;6121;49.810;6.418;2023-09-19T06:07:49;34.67;;;8.80;;
12114;SDS011;6121;49.810;6.418;2023-09-19T06:10:16;26.13;;;7.05;;
12114;SDS011;6121;49.810;6.418;2023-09-19T06:12:42;35.83;;;9.10;;
12114;SDS011;6121;49.810;6.418;2023-09-19T06:15:12;28.27;;;7.25;;
12114;SDS011;6121;49.810;6.418;2023-09-19T06:17:47;38.28;;;9.73;;
12114;SDS011;6121;49.810;6.418;2023-09-19T06:20:20;26.70;;;6.93;;
12114;SDS011;6121;49.810;6.418;2023-09-19T06:22:48;31.52;;;8.18;;
12114;SDS011;6121;49.810;6.418;2023-09-19T06:25:15;23.90;;;6.28;;
12114;SDS011;6121;49.810;6.418;2023-09-19T06:27:46;38.90;;;9.65;;
12114;SDS011;6121;49.810;6.418;2023-09-19T06:30:12;26.35;;;7.07;;
12114;SDS011;6121;49.810;6.418;2023-09-19T06:32:39;31.15;;;8.30;;
12114;SDS011;6121;49.810;6.418;2023-09-19T06:35:09;24.33;;;6.72;;
12114;SDS011;6121;49.810;6.418;2023-09-19T06:37:36;34.47;;;9.20;;
12114;SDS011;6121;49.810;6.418;2023-09-19T06:40:09;31.15;;;8.10;;
12114;SDS011;6121;49.810;6.418;2023-09-19T06:42:46;52.85;;;12.98;;
12114;SDS011;6121;49.810;6.418;2023-09-19T06:45:14;37.13;;;9.60;;
12114;SDS011;6121;49.810;6.418;2023-09-19T06:47:47;47.63;;;11.90;;
12114;SDS011;6121;49.810;6.418;2023-09-19T06:50:20;33.08;;;8.40;;
12114;SDS011;6121;49.810;6.418;2023-09-19T06:52:50;38.70;;;9.55;;
12114;SDS011;6121;49.810;6.418;2023-09-19T06:55:19;38.05;;;9.63;;
12114;SDS011;6121;49.810;6.418;2023-09-19T06:57:46;53.67;;;12.97;;
12114;SDS011;6121;49.810;6.418;2023-09-19T07:00:13;33.70;;;8.68;;
12114;SDS011;6121;49.810;6.418;2023-09-19T07:03:00;42.40;;;10.50;;
12114;SDS011;6121;49.810;6.418;2023-09-19T07:05:32;44.97;;;11.00;;
12114;SDS011;6121;49.810;6.418;2023-09-19T07:07:59;38.70;;;9.63;;
12114;SDS011;6121;49.810;6.418;2023-09-19T07:10:26;48.92;;;11.75;;
12114;SDS011;6121;49.810;6.418;2023-09-19T07:15:29;46.85;;;11.23;;
12114;SDS011;6121;49.810;6.418;2023-09-19T07:17:58;44.80;;;11.13;;
12114;SDS011;6121;49.810;6.418;2023-09-19T07:20:26;42.85;;;10.63;;
12114;SDS011;6121;49.810;6.418;2023-09-19T07:22:53;37.42;;;9.48;;
12114;SDS011;6121;49.810;6.418;2023-09-19T07:25:25;43.33;;;10.73;;
12114;SDS011;6121;49.810;6.418;2023-09-19T07:27:51;52.53;;;12.90;;
12114;SDS011;6121;49.810;6.418;2023-09-19T07:30:17;38.60;;;9.63;;
12114;SDS011;6121;49.810;6.418;2023-09-19T07:32:43;50.72;;;12.43;;
12114;SDS011;6121;49.810;6.418;2023-09-19T07:35:09;32.93;;;8.13;;
12114;SDS011;6121;49.810;6.418;2023-09-19T07:37:35;47.97;;;11.73;;
12114;SDS011;6121;49.810;6.418;2023-09-19T07:40:04;35.70;;;8.87;;
12114;SDS011;6121;49.810;6.418;2023-09-19T07:42:35;37.22;;;9.25;;
12114;SDS011;6121;49.810;6.418;2023-09-19T07:45:04;36.63;;;9.13;;
12114;SDS011;6121;49.810;6.418;2023-09-19T07:47:30;49.38;;;12.10;;
12114;SDS011;6121;49.810;6.418;2023-09-19T07:49:58;37.25;;;9.13;;
12114;SDS011;6121;49.810;6.418;2023-09-19T07:52:25;38.83;;;9.45;;
12114;SDS011;6121;49.810;6.418;2023-09-19T07:54:53;37.30;;;9.35;;
12114;SDS011;6121;49.810;6.418;2023-09-19T07:57:19;41.97;;;10.43;;
12114;SDS011;6121;49.810;6.418;2023-09-19T07:59:45;36.73;;;9.17;;
12114;SDS011;6121;49.810;6.418;2023-09-19T08:02:11;25.57;;;6.67;;
12114;SDS011;6121;49.810;6.418;2023-09-19T08:04:44;61.60;;;14.70;;
12114;SDS011;6121;49.810;6.418;2023-09-19T08:07:11;43.58;;;10.90;;
12114;SDS011;6121;49.810;6.418;2023-09-19T08:09:37;53.70;;;13.13;;
12114;SDS011;6121;49.810;6.418;2023-09-19T08:12:04;38.70;;;9.63;;
12114;SDS011;6121;49.810;6.418;2023-09-19T08:14:31;39.15;;;9.63;;
12114;SDS011;6121;49.810;6.418;2023-09-19T08:16:58;54.63;;;13.23;;
12114;SDS011;6121;49.810;6.418;2023-09-19T08:19:24;50.17;;;12.33;;
12114;SDS011;6121;49.810;6.418;2023-09-19T08:21:56;54.67;;;13.27;;
12114;SDS011;6121;49.810;6.418;2023-09-19T08:24:27;74.43;;;17.92;;
12114;SDS011;6121;49.810;6.418;2023-09-19T08:26:54;79.05;;;19.42;;
12114;SDS011;6121;49.810;6.418;2023-09-19T08:29:21;54.78;;;13.80;;
12114;SDS011;6121;49.810;6.418;2023-09-19T08:31:56;41.43;;;10.70;;
12114;SDS011;6121;49.810;6.418;2023-09-19T08:34:25;38.87;;;9.87;;
12114;SDS011;6121;49.810;6.418;2023-09-19T08:36:54;44.58;;;11.25;;
12114;SDS011;6121;49.810;6.418;2023-09-19T08:39:23;53.78;;;13.40;;
12114;SDS011;6121;49.810;6.418;2023-09-19T08:42:00;39.38;;;9.95;;
12114;SDS011;6121;49.810;6.418;2023-09-19T08:44:27;38.63;;;9.77;;
12114;SDS011;6121;49.810;6.418;2023-09-19T08:46:56;49.05;;;12.52;;
12114;SDS011;6121;49.810;6.418;2023-09-19T08:49:36;41.60;;;10.55;;
12114;SDS011;6121;49.810;6.418;2023-09-19T08:52:25;67.93;;;16.42;;
12114;SDS011;6121;49.810;6.418;2023-09-19T08:54:55;39.47;;;9.95;;
12114;SDS011;6121;49.810;6.418;2023-09-19T08:57:26;46.60;;;11.80;;
12114;SDS011;6121;49.810;6.418;2023-09-19T08:59:54;49.77;;;12.17;;
12114;SDS011;6121;49.810;6.418;2023-09-19T09:02:22;59.65;;;15.38;;
12114;SDS011;6121;49.810;6.418;2023-09-19T09:04:49;51.38;;;12.75;;
12114;SDS011;6121;49.810;6.418;2023-09-19T09:07:15;51.90;;;12.97;;
12114;SDS011;6121;49.810;6.418;2023-09-19T09:09:44;52.15;;;13.13;;
12114;SDS011;6121;49.810;6.418;2023-09-19T09:12:11;63.45;;;15.88;;
12114;SDS011;6121;49.810;6.418;2023-09-19T09:14:39;66.72;;;16.58;;
12114;SDS011;6121;49.810;6.418;2023-09-19T09:17:06;60.17;;;14.93;;
12114;SDS011;6121;49.810;6.418;2023-09-19T09:19:32;45.85;;;11.60;;
12114;SDS011;6121;49.810;6.418;2023-09-19T09:22:08;56.80;;;14.25;;
12114;SDS011;6121;49.810;6.418;2023-09-19T09:24:35;48.55;;;12.40;;
12114;SDS011;6121;49.810;6.418;2023-09-19T09:27:05;57.25;;;14.60;;
12114;SDS011;6121;49.810;6.418;2023-09-19T09:32:26;70.15;;;17.27;;
12114;SDS011;6121;49.810;6.418;2023-09-19T09:34:59;57.38;;;14.13;;
12114;SDS011;6121;49.810;6.418;2023-09-19T09:37:26;55.92;;;14.15;;
12114;SDS011;6121;49.810;6.418;2023-09-19T09:39:54;50.10;;;12.70;;
12114;SDS011;6121;49.810;6.418;2023-09-19T09:42:34;72.47;;;18.05;;
12114;SDS011;6121;49.810;6.418;2023-09-19T09:45:17;60.63;;;15.00;;
12114;SDS011;6121;49.810;6.418;2023-09-19T09:48:16;49.05;;;12.57;;
12114;SDS011;6121;49.810;6.418;2023-09-19T09:50:57;58.23;;;14.77;;
12114;SDS011;6121;49.810;6.418;2023-09-19T09:53:28;53.53;;;13.57;;
12114;SDS011;6121;49.810;6.418;2023-09-19T09:56:04;58.97;;;15.07;;
12114;SDS011;6121;49.810;6.418;2023-09-19T09:58:52;52.42;;;13.45;;
12114;SDS011;6121;49.810;6.418;2023-09-19T10:01:24;45.40;;;11.88;;
12114;SDS011;6121;49.810;6.418;2023-09-19T10:03:56;55.28;;;14.40;;
12114;SDS011;6121;49.810;6.418;2023-09-19T10:06:23;48.65;;;12.57;;
12114;SDS011;6121;49.810;6.418;2023-09-19T10:09:02;52.38;;;13.25;;
12114;SDS011;6121;49.810;6.418;2023-09-19T10:11:38;49.05;;;12.68;;
12114;SDS011;6121;49.810;6.418;2023-09-19T10:14:15;49.92;;;13.30;;
12114;SDS011;6121;49.810;6.418;2023-09-19T10:16:47;56.13;;;14.77;;
12114;SDS011;6121;49.810;6.418;2023-09-19T10:19:15;58.63;;;15.38;;
12114;SDS011;6121;49.810;6.418;2023-09-19T10:21:48;46.45;;;12.13;;
12114;SDS011;6121;49.810;6.418;2023-09-19T10:24:15;43.97;;;11.70;;
12114;SDS011;6121;49.810;6.418;2023-09-19T10:26:43;56.90;;;14.77;;
12114;SDS011;6121;49.810;6.418;2023-09-19T10:29:12;52.95;;;14.07;;
12114;SDS011;6121;49.810;6.418;2023-09-19T10:31:39;51.17;;;13.53;;
12114;SDS011;6121;49.810;6.418;2023-09-19T10:34:16;50.33;;;13.23;;
12114;SDS011;6121;49.810;6.418;2023-09-19T10:36:46;61.28;;;16.08;;
12114;SDS011;6121;49.810;6.418;2023-09-19T10:39:13;52.80;;;14.00;;
12114;SDS011;6121;49.810;6.418;2023-09-19T10:41:47;47.87;;;12.83;;
12114;SDS011;6121;49.810;6.418;2023-09-19T10:44:23;55.25;;;14.75;;
12114;SDS011;6121;49.810;6.418;2023-09-19T10:46:53;59.95;;;15.98;;
12114;SDS011;6121;49.810;6.418;2023-09-19T10:49:20;55.73;;;15.07;;
12114;SDS011;6121;49.810;6.418;2023-09-19T10:51:47;53.75;;;12.95;;
12114;SDS011;6121;49.810;6.418;2023-09-19T10:54:19;56.88;;;13.75;;
12114;SDS011;6121;49.810;6.418;2023-09-19T10:56:49;64.07;;;15.07;;
12114;SDS011;6121;49.810;6.418;2023-09-19T10:59:19;61.60;;;14.77;;
12114;SDS011;6121;49.810;6.418;2023-09-19T11:01:53;60.25;;;14.10;;
12114;SDS011;6121;49.810;6.418;2023-09-19T11:04:33;60.88;;;14.55;;
12114;SDS011;6121;49.810;6.418;2023-09-19T11:07:08;80.07;;;18.50;;
12114;SDS011;6121;49.810;6.418;2023-09-19T11:09:48;56.70;;;13.23;;
12114;SDS011;6121;49.810;6.418;2023-09-19T11:14:55;60.30;;;14.37;;
12114;SDS011;6121;49.810;6.418;2023-09-19T11:36:10;65.18;;;15.45;;
12114;SDS011;6121;49.810;6.418;2023-09-19T11:43:50;53.57;;;12.73;;
12114;SDS011;6121;49.810;6.418;2023-09-19T11:46:25;63.53;;;14.68;;
12114;SDS011;6121;49.810;6.418;2023-09-19T11:48:53;70.28;;;15.98;;
12114;SDS011;6121;49.810;6.418;2023-09-19T11:51:21;58.75;;;13.73;;
12114;SDS011;6121;49.810;6.418;2023-09-19T11:53:49;56.17;;;13.20;;
12114;SDS011;6121;49.810;6.418;2023-09-19T11:56:17;56.05;;;13.23;;
12114;SDS011;6121;49.810;6.418;2023-09-19T11:58:45;60.88;;;14.23;;
12114;SDS011;6121;49.810;6.418;2023-09-19T12:01:15;66.25;;;15.48;;
12114;SDS011;6121;49.810;6.418;2023-09-19T12:03:47;57.33;;;13.38;;
12114;SDS011;6121;49.810;6.418;2023-09-19T12:06:18;58.47;;;13.48;;
12114;SDS011;6121;49.810;6.418;2023-09-19T12:08:44;63.60;;;14.95;;
12114;SDS011;6121;49.810;6.418;2023-09-19T12:11:14;56.97;;;13.82;;
12114;SDS011;6121;49.810;6.418;2023-09-19T12:13:41;54.40;;;13.15;;
12114;SDS011;6121;49.810;6.418;2023-09-19T12:16:13;58.35;;;13.80;;
12114;SDS011;6121;49.810;6.418;2023-09-19T12:18:40;64.10;;;14.60;;
12114;SDS011;6121;49.810;6.418;2023-09-19T12:26:38;63.47;;;14.95;;
12114;SDS011;6121;49.810;6.418;2023-09-19T12:29:12;75.73;;;17.87;;
12114;SDS011;6121;49.810;6.418;2023-09-19T12:31:58;63.90;;;15.02;;
12114;SDS011;6121;49.810;6.418;2023-09-19T12:34:28;64.50;;;14.77;;
12114;SDS011;6121;49.810;6.418;2023-09-19T12:37:11;65.90;;;15.43;;
12114;SDS011;6121;49.810;6.418;2023-09-19T12:39:38;62.05;;;14.30;;
12114;SDS011;6121;49.810;6.418;2023-09-19T12:42:12;68.27;;;15.73;;
12114;SDS011;6121;49.810;6.418;2023-09-19T12:44:43;56.00;;;12.98;;
12114;SDS011;6121;49.810;6.418;2023-09-19T12:47:21;76.13;;;17.38;;
12114;SDS011;6121;49.810;6.418;2023-09-19T12:52:44;82.93;;;19.15;;
12114;SDS011;6121;49.810;6.418;2023-09-19T12:55:24;75.93;;;17.45;;
12114;SDS011;6121;49.810;6.418;2023-09-19T13:00:31;63.67;;;15.05;;
12114;SDS011;6121;49.810;6.418;2023-09-19T13:03:14;86.72;;;20.13;;
12114;SDS011;6121;49.810;6.418;2023-09-19T13:05:57;68.83;;;16.00;;
12114;SDS011;6121;49.810;6.418;2023-09-19T13:08:26;64.78;;;15.05;;
12114;SDS011;6121;49.810;6.418;2023-09-19T13:13:44;59.60;;;13.95;;
12114;SDS011;6121;49.810;6.418;2023-09-19T13:16:19;58.83;;;14.10;;
12114;SDS011;6121;49.810;6.418;2023-09-19T13:18:51;62.20;;;14.60;;
12114;SDS011;6121;49.810;6.418;2023-09-19T13:21:34;61.75;;;14.65;;
12114;SDS011;6121;49.810;6.418;2023-09-19T13:24:20;64.07;;;14.93;;
12114;SDS011;6121;49.810;6.418;2023-09-19T13:26:48;68.53;;;16.02;;
12114;SDS011;6121;49.810;6.418;2023-09-19T13:29:14;81.93;;;19.30;;
12114;SDS011;6121;49.810;6.418;2023-09-19T13:31:52;62.00;;;14.45;;
12114;SDS011;6121;49.810;6.418;2023-09-19T13:34:19;64.13;;;15.27;;
12114;SDS011;6121;49.810;6.418;2023-09-19T13:36:45;68.80;;;16.25;;
12114;SDS011;6121;49.810;6.418;2023-09-19T13:39:16;72.97;;;16.83;;
12114;SDS011;6121;49.810;6.418;2023-09-19T13:41:46;55.20;;;12.93;;
12114;SDS011;6121;49.810;6.418;2023-09-19T13:44:13;61.70;;;14.50;;
12114;SDS011;6121;49.810;6.418;2023-09-19T13:46:39;68.63;;;16.17;;
12114;SDS011;6121;49.810;6.418;2023-09-19T13:49:06;75.53;;;17.35;;
12114;SDS011;6121;49.810;6.418;2023-09-19T13:51:32;80.45;;;18.42;;
12114;SDS011;6121;49.810;6.418;2023-09-19T13:53:58;64.78;;;14.55;;
12114;SDS011;6121;49.810;6.418;2023-09-19T13:56:25;72.53;;;17.00;;
12114;SDS011;6121;49.810;6.418;2023-09-19T13:58:56;68.10;;;15.80;;
12114;SDS011;6121;49.810;6.418;2023-09-19T14:01:22;73.40;;;16.93;;
12114;SDS011;6121;49.810;6.418;2023-09-19T14:03:48;60.92;;;14.15;;
12114;SDS011;6121;49.810;6.418;2023-09-19T14:06:16;66.57;;;15.33;;
12114;SDS011;6121;49.810;6.418;2023-09-19T14:08:43;75.60;;;17.10;;
12114;SDS011;6121;49.810;6.418;2023-09-19T14:11:13;66.88;;;15.40;;
12114;SDS011;6121;49.810;6.418;2023-09-19T14:13:39;63.40;;;14.38;;
12114;SDS011;6121;49.810;6.418;2023-09-19T14:16:06;65.63;;;14.95;;
12114;SDS011;6121;49.810;6.418;2023-09-19T14:18:34;62.42;;;14.25;;
12114;SDS011;6121;49.810;6.418;2023-09-19T14:21:06;75.00;;;16.88;;
12114;SDS011;6121;49.810;6.418;2023-09-19T14:23:36;69.35;;;15.75;;
12114;SDS011;6121;49.810;6.418;2023-09-19T14:26:03;59.28;;;13.35;;
12114;SDS011;6121;49.810;6.418;2023-09-19T14:28:31;70.95;;;16.00;;
12114;SDS011;6121;49.810;6.418;2023-09-19T14:31:03;68.80;;;15.65;;
12114;SDS011;6121;49.810;6.418;2023-09-19T14:33:31;78.85;;;17.67;;
12114;SDS011;6121;49.810;6.418;2023-09-19T14:35:57;69.43;;;15.73;;
12114;SDS011;6121;49.810;6.418;2023-09-19T14:38:23;73.30;;;16.52;;
12114;SDS011;6121;49.810;6.418;2023-09-19T14:40:48;60.00;;;13.63;;
12114;SDS011;6121;49.810;6.418;2023-09-19T14:43:23;83.20;;;18.63;;
12114;SDS011;6121;49.810;6.418;2023-09-19T14:45:49;63.67;;;14.30;;
12114;SDS011;6121;49.810;6.418;2023-09-19T14:48:15;72.32;;;16.15;;
12114;SDS011;6121;49.810;6.418;2023-09-19T14:50:40;64.45;;;14.30;;
12114;SDS011;6121;49.810;6.418;2023-09-19T14:53:06;106.57;;;23.60;;
12114;SDS011;6121;49.810;6.418;2023-09-19T14:55:36;66.75;;;14.85;;
12114;SDS011;6121;49.810;6.418;2023-09-19T14:58:06;67.43;;;14.98;;
12114;SDS011;6121;49.810;6.418;2023-09-19T15:00:33;73.07;;;15.82;;
12114;SDS011;6121;49.810;6.418;2023-09-19T15:02:59;102.83;;;22.37;;
12114;SDS011;6121;49.810;6.418;2023-09-19T15:05:25;76.25;;;16.85;;
12114;SDS011;6121;49.810;6.418;2023-09-19T15:07:51;63.45;;;14.23;;
12114;SDS011;6121;49.810;6.418;2023-09-19T15:10:16;66.18;;;14.68;;
12114;SDS011;6121;49.810;6.418;2023-09-19T15:12:43;99.90;;;21.95;;
12114;SDS011;6121;49.810;6.418;2023-09-19T15:15:09;70.80;;;15.67;;
12114;SDS011;6121;49.810;6.418;2023-09-19T15:17:35;74.85;;;16.42;;
12114;SDS011;6121;49.810;6.418;2023-09-19T15:20:02;60.15;;;13.48;;
12114;SDS011;6121;49.810;6.418;2023-09-19T15:22:32;94.53;;;20.65;;
12114;SDS011;6121;49.810;6.418;2023-09-19T15:25:01;68.22;;;15.00;;
12114;SDS011;6121;49.810;6.418;2023-09-19T15:27:29;77.20;;;16.97;;
12114;SDS011;6121;49.810;6.418;2023-09-19T15:29:56;66.47;;;14.63;;
12114;SDS011;6121;49.810;6.418;2023-09-19T15:32:30;77.38;;;17.05;;
12114;SDS011;6121;49.810;6.418;2023-09-19T15:34:56;67.70;;;15.10;;
12114;SDS011;6121;49.810;6.418;2023-09-19T15:37:22;65.55;;;14.55;;
12114;SDS011;6121;49.810;6.418;2023-09-19T15:39:48;62.28;;;13.73;;
12114;SDS011;6121;49.810;6.418;2023-09-19T15:42:14;80.90;;;17.88;;
12114;SDS011;6121;49.810;6.418;2023-09-19T15:44:41;64.45;;;14.55;;
12114;SDS011;6121;49.810;6.418;2023-09-19T15:47:09;80.57;;;17.80;;
12114;SDS011;6121;49.810;6.418;2023-09-19T15:49:35;68.78;;;15.13;;
12114;SDS011;6121;49.810;6.418;2023-09-19T15:52:01;70.55;;;15.90;;
12114;SDS011;6121;49.810;6.418;2023-09-19T15:54:26;68.93;;;15.53;;
12114;SDS011;6121;49.810;6.418;2023-09-19T15:56:53;63.25;;;14.18;;
12114;SDS011;6121;49.810;6.418;2023-09-19T15:59:20;76.43;;;16.97;;